Time;durP1;ratioP1;P1;durP2;ratioP2;P2;SDS_P1;SDS_P2;PMS_P1;PMS_P2;Temp;Humidity;BMP_temperature;BMP_pressure;BME280_temperature;BME280_humidity;BME280_pressure;Samples;Min_cycle;Max_cycle;Signal;HPM_P1;HPM_P2
2022/01/16 00:04:24;;;;;;;;;;;;;;;28.18;55.62;97878.41;625861;226;68440;-69
2022/01/16 00:06:49;;;;;;;;;;;;;;;28.17;56.45;97858.70;625750;226;66232;-68
2022/01/16 00:09:17;;;;;;;;;;;;;;;28.15;56.73;97854.69;625839;226;68760;-68
2022/01/16 00:11:44;;;;;;;;;;;;;;;28.14;58.09;97863.91;625834;226;68489;-68
2022/01/16 00:14:12;;;;;;;;;;;;;;;28.14;58.43;97869.31;625866;226;64952;-68
2022/01/16 00:16:40;;;;;;;;;;;;;;;28.11;58.12;97855.29;625869;226;68356;-68
2022/01/16 00:19:07;;;;;;;;;;;;;;;28.11;56.91;97868.80;625858;226;68041;-68
2022/01/16 00:21:38;;;;;;;;;;;;;;;28.09;55.33;97873.69;625894;224;65187;-68
2022/01/16 00:24:05;;;;;;;;;;;;;;;28.09;54.86;97886.41;625891;226;68453;-70
2022/01/16 00:26:33;;;;;;;;;;;;;;;28.08;56.23;97893.72;625841;226;68479;-69
2022/01/16 00:29:01;;;;;;;;;;;;;;;28.06;57.52;97895.91;625879;226;66344;-69
2022/01/16 00:31:28;;;;;;;;;;;;;;;28.05;58.84;97913.23;625851;226;68470;-69
2022/01/16 00:33:56;;;;;;;;;;;;;;;28.06;57.80;97933.73;625871;226;68429;-69
2022/01/16 00:36:23;;;;;;;;;;;;;;;28.04;57.50;97954.84;625881;226;64870;-69
2022/01/16 00:38:54;;;;;;;;;;;;;;;28.03;57.46;98015.39;625897;226;68622;-69
2022/01/16 00:41:21;;;;;;;;;;;;;;;28.03;57.48;98001.88;625867;226;68455;-69
2022/01/16 00:43:50;;;;;;;;;;;;;;;28.00;56.64;97918.71;625874;226;64879;-69
2022/01/16 00:46:18;;;;;;;;;;;;;;;27.99;55.72;97922.52;625840;226;68142;-70
2022/01/16 00:48:46;;;;;;;;;;;;;;;27.98;57.27;97901.98;625883;226;65878;-69
2022/01/16 00:51:15;;;;;;;;;;;;;;;27.97;58.82;97843.66;625819;226;64953;-68
2022/01/16 00:53:43;;;;;;;;;;;;;;;27.92;56.46;97768.11;625850;226;68394;-69
2022/01/16 00:56:11;;;;;;;;;;;;;;;27.94;57.43;97784.00;625852;226;66667;-66
2022/01/16 00:58:39;;;;;;;;;;;;;;;27.93;56.80;97761.59;625838;226;65062;-66
2022/01/16 01:01:06;;;;;;;;;;;;;;;27.93;56.62;97771.59;625886;226;66271;-66
2022/01/16 01:03:34;;;;;;;;;;;;;;;27.91;59.46;97785.42;625867;226;66388;-66
2022/01/16 01:06:01;;;;;;;;;;;;;;;27.89;57.75;97761.39;625846;226;62720;-69
2022/01/16 01:08:30;;;;;;;;;;;;;;;27.88;58.10;97818.41;625893;226;66122;-69
2022/01/16 01:10:59;;;;;;;;;;;;;;;27.87;56.47;97852.73;625854;226;66088;-69
2022/01/16 01:16:03;;;;;;;;;;;;;;;27.86;56.83;97858.44;625883;226;68134;-69
2022/01/16 01:18:28;;;;;;;;;;;;;;;27.84;54.71;97847.12;625823;225;68495;-69
2022/01/16 01:20:57;;;;;;;;;;;;;;;27.83;59.26;97873.34;625848;226;63890;-69
2022/01/16 01:23:25;;;;;;;;;;;;;;;27.82;58.49;97866.31;625849;224;68609;-69
2022/01/16 01:25:52;;;;;;;;;;;;;;;27.80;57.33;97855.02;625821;226;68430;-69
2022/01/16 01:28:20;;;;;;;;;;;;;;;27.81;58.23;97863.92;625866;226;64852;-69
2022/01/16 01:30:47;;;;;;;;;;;;;;;27.80;55.81;97840.69;625892;226;66522;-69
2022/01/16 01:33:18;;;;;;;;;;;;;;;27.80;58.63;97859.59;625861;226;68450;-69
2022/01/16 01:35:45;;;;;;;;;;;;;;;27.77;58.62;97860.96;625837;225;65134;-69
2022/01/16 01:38:17;;;;;;;;;;;;;;;27.76;56.77;97853.17;625869;226;68295;-69
2022/01/16 01:40:41;;;;;;;;;;;;;;;27.75;55.65;97856.98;625758;226;68493;-69
2022/01/16 01:51:19;;;;;;;;;;;;;;;27.70;58.24;97892.16;625446;226;65308;-68
2022/01/16 01:53:46;;;;;;;;;;;;;;;27.67;57.73;97883.55;624745;227;66500;-68
2022/01/16 01:56:17;;;;;;;;;;;;;;;27.67;57.23;97888.95;624723;227;66445;-69
2022/01/16 01:58:44;;;;;;;;;;;;;;;27.66;58.72;97891.92;624714;227;62771;-69
2022/01/16 02:01:11;;;;;;;;;;;;;;;27.65;56.43;97890.34;624700;227;68480;-68
2022/01/16 02:06:19;;;;;;;;;;;;;;;27.63;59.01;97901.41;624712;227;65171;-69
2022/01/16 02:08:48;;;;;;;;;;;;;;;27.62;59.33;97891.72;624730;227;66244;-68
2022/01/16 02:11:16;;;;;;;;;;;;;;;27.60;57.60;97887.70;624701;227;68816;-69
2022/01/16 02:13:51;;;;;;;;;;;;;;;27.60;58.84;97902.00;624704;227;65000;-69
2022/01/16 02:30:44;;;;;;;;;;;;;;;27.52;59.67;97886.47;624753;227;62826;-69
2022/01/16 02:35:09;;;;;;;;;;;;;;;27.47;59.40;97878.44;624736;227;68452;-68
2022/01/16 02:37:37;;;;;;;;;;;;;;;27.47;59.97;97858.75;624689;227;65173;-69
2022/01/16 02:40:12;;;;;;;;;;;;;;;27.45;59.18;97862.55;624716;227;68748;-69
2022/01/16 02:42:39;;;;;;;;;;;;;;;27.42;58.14;97871.23;624580;226;66523;-68
2022/01/16 02:45:06;;;;;;;;;;;;;;;27.42;59.16;97865.05;624613;226;62930;-68
2022/01/16 02:47:33;;;;;;;;;;;;;;;27.42;57.77;97865.05;624700;227;66197;-69
2022/01/16 02:50:01;;;;;;;;;;;;;;;27.42;59.79;97870.44;624692;227;66485;-69
2022/01/16 02:52:29;;;;;;;;;;;;;;;27.41;59.37;97847.22;625624;226;65031;-69
2022/01/16 02:54:58;;;;;;;;;;;;;;;27.39;59.71;97861.03;625906;226;68277;-68
2022/01/16 02:57:25;;;;;;;;;;;;;;;27.40;58.16;97870.72;625824;226;66312;-69
2022/01/16 02:59:54;;;;;;;;;;;;;;;27.39;59.89;97862.91;625881;226;62731;-69
2022/01/16 03:02:23;;;;;;;;;;;;;;;27.37;59.22;97854.31;625853;226;66133;-69
2022/01/16 03:04:51;;;;;;;;;;;;;;;27.37;58.82;97867.81;625861;226;68239;-68
2022/01/16 03:07:19;;;;;;;;;;;;;;;27.34;60.01;97869.20;625859;226;65056;-68
2022/01/16 03:10:02;;;;;;;;;;;;;;;27.34;59.71;97876.50;625868;226;68267;-68
2022/01/16 03:12:17;;;;;;;;;;;;;;;27.33;58.90;97878.37;625005;226;66183;-68
2022/01/16 03:14:44;;;;;;;;;;;;;;;27.32;58.59;97887.58;625876;226;65047;-68
2022/01/16 03:17:12;;;;;;;;;;;;;;;27.30;57.37;97868.16;625865;226;68281;-68
2022/01/16 03:22:25;;;;;;;;;;;;;;;27.29;61.94;97861.17;625825;226;64923;-68
2022/01/16 03:24:53;;;;;;;;;;;;;;;27.27;60.04;97867.95;625838;226;68400;-68
2022/01/16 03:27:20;;;;;;;;;;;;;;;27.24;58.35;97869.33;625815;226;68659;-68
2022/01/16 03:29:49;;;;;;;;;;;;;;;27.25;59.79;97876.33;625852;226;64918;-69
2022/01/16 03:32:18;;;;;;;;;;;;;;;27.22;59.39;97887.70;625868;226;68467;-68
2022/01/16 03:34:46;;;;;;;;;;;;;;;27.22;61.05;97888.50;625830;226;66439;-69
2022/01/16 03:37:13;;;;;;;;;;;;;;;27.20;59.89;97879.92;625837;226;62792;-68
2022/01/16 03:39:41;;;;;;;;;;;;;;;27.19;59.83;97883.69;625868;226;66380;-68
2022/01/16 03:42:09;;;;;;;;;;;;;;;27.19;58.30;97897.18;625836;226;66186;-69
2022/01/16 03:44:36;;;;;;;;;;;;;;;27.17;60.77;97888.59;625876;226;65095;-69
2022/01/16 03:47:04;;;;;;;;;;;;;;;27.15;58.93;97882.65;625838;226;68324;-68
2022/01/16 03:49:32;;;;;;;;;;;;;;;27.15;59.80;97889.95;625830;226;68444;-68
2022/01/16 03:52:00;;;;;;;;;;;;;;;27.15;60.32;97893.44;625829;226;64857;-68
2022/01/16 03:54:30;;;;;;;;;;;;;;;27.13;57.27;97887.53;625872;226;68746;-69
2022/01/16 03:56:59;;;;;;;;;;;;;;;27.12;58.23;97883.23;625881;226;68418;-68
2022/01/16 03:59:27;;;;;;;;;;;;;;;27.10;58.42;97895.41;625886;226;64993;-69
2022/01/16 04:01:55;;;;;;;;;;;;;;;27.11;59.29;97894.30;625862;226;66468;-68
2022/01/16 04:04:22;;;;;;;;;;;;;;;27.10;57.88;97896.20;625864;226;68487;-69
2022/01/16 04:06:50;;;;;;;;;;;;;;;27.08;59.66;97903.78;625860;226;65045;-68
2022/01/16 04:09:17;;;;;;;;;;;;;;;27.08;58.82;97901.08;625896;226;68740;-69
2022/01/16 04:11:51;;;;;;;;;;;;;;;27.08;60.10;97903.78;625843;226;68536;-68
2022/01/16 04:14:23;;;;;;;;;;;;;;;27.06;59.42;97899.77;625696;226;63082;-68
2022/01/16 04:16:46;;;;;;;;;;;;;;;27.04;59.00;97902.77;625680;226;68787;-68
2022/01/16 04:19:13;;;;;;;;;;;;;;;27.02;57.18;97894.15;625858;226;68682;-69
2022/01/16 04:21:41;;;;;;;;;;;;;;;27.00;60.61;97909.81;625842;226;64902;-68
2022/01/16 04:24:09;;;;;;;;;;;;;;;27.00;58.21;97910.61;625851;226;68675;-68
2022/01/16 04:26:36;;;;;;;;;;;;;;;27.00;59.76;97907.12;625856;226;68646;-68
2022/01/16 04:29:04;;;;;;;;;;;;;;;26.98;58.53;97910.13;625814;226;62660;-68
2022/01/16 04:31:31;;;;;;;;;;;;;;;26.96;56.84;97906.90;625855;226;68567;-69
2022/01/16 04:33:59;;;;;;;;;;;;;;;26.95;58.56;97901.78;625869;226;68390;-68
2022/01/16 04:36:26;;;;;;;;;;;;;;;26.95;59.23;97904.48;625854;226;64939;-68
2022/01/16 04:38:54;;;;;;;;;;;;;;;26.94;59.51;97903.68;625851;226;68701;-68
2022/01/16 04:44:08;;;;;;;;;;;;;;;26.92;59.15;97913.15;625863;224;62987;-68
2022/01/16 04:46:35;;;;;;;;;;;;;;;26.90;57.82;97913.45;625847;226;68599;-67
2022/01/16 04:49:03;;;;;;;;;;;;;;;26.89;58.93;97911.83;625842;226;68615;-67
2022/01/16 04:51:32;;;;;;;;;;;;;;;26.89;59.22;97906.44;625305;226;62633;-67
2022/01/16 04:53:59;;;;;;;;;;;;;;;26.88;57.80;97904.05;624640;227;66405;-67
2022/01/16 04:56:27;;;;;;;;;;;;;;;26.87;59.22;97907.81;624656;227;66726;-67
2022/01/16 04:58:54;;;;;;;;;;;;;;;26.85;60.55;97900.03;624653;227;62791;-68
2022/01/16 05:01:22;;;;;;;;;;;;;;;26.85;60.19;97888.45;624723;227;66258;-68
2022/01/16 05:03:49;;;;;;;;;;;;;;;26.82;60.43;97883.59;624653;227;68675;-68
2022/01/16 05:06:17;;;;;;;;;;;;;;;26.82;58.64;97884.42;624646;227;65111;-67
2022/01/16 05:08:45;;;;;;;;;;;;;;;26.81;60.02;97895.48;624636;227;68984;-67
2022/01/16 05:11:14;;;;;;;;;;;;;;;26.78;60.06;97886.88;624655;227;68635;-67
2022/01/16 05:18:57;;;;;;;;;;;;;;;26.76;59.91;97896.34;624662;227;68739;-67
2022/01/16 05:21:25;;;;;;;;;;;;;;;26.76;58.75;97888.25;624660;227;62707;-67
2022/01/16 05:23:52;;;;;;;;;;;;;;;26.74;58.96;97888.55;624684;227;66521;-67
2022/01/16 05:26:26;;;;;;;;;;;;;;;26.71;59.09;97889.13;624646;227;66586;-67
2022/01/16 05:28:49;;;;;;;;;;;;;;;26.71;60.42;97894.53;624575;226;65070;-67
2022/01/16 05:31:17;;;;;;;;;;;;;;;26.72;60.33;97893.42;624636;227;68655;-67
2022/01/16 05:33:44;;;;;;;;;;;;;;;26.69;60.34;97891.30;624618;227;68701;-67
2022/01/16 05:36:12;;;;;;;;;;;;;;;26.69;58.79;97887.81;624673;227;62982;-68
2022/01/16 05:38:39;;;;;;;;;;;;;;;26.67;59.28;97893.48;624653;227;66570;-67
2022/01/16 05:41:07;;;;;;;;;;;;;;;26.69;60.22;97893.20;624695;227;66525;-68
2022/01/16 05:43:34;;;;;;;;;;;;;;;26.65;59.87;97889.46;624656;227;62912;-67
2022/01/16 05:46:02;;;;;;;;;;;;;;;26.69;61.31;97901.30;624639;227;66618;-68
2022/01/16 05:48:29;;;;;;;;;;;;;;;26.66;60.67;97896.48;624652;227;66345;-67
2022/01/16 05:50:57;;;;;;;;;;;;;;;26.63;60.28;97897.85;624589;226;62835;-67
2022/01/16 05:53:24;;;;;;;;;;;;;;;26.64;61.09;97904.84;624706;227;66539;-67
2022/01/16 05:55:52;;;;;;;;;;;;;;;26.60;59.72;97901.12;624641;227;66968;-64
2022/01/16 05:58:19;;;;;;;;;;;;;;;26.60;60.40;97906.52;624650;227;62870;-65
2022/01/16 06:00:48;;;;;;;;;;;;;;;26.57;59.59;97915.15;624632;227;68370;-65
2022/01/16 06:03:15;;;;;;;;;;;;;;;26.56;62.37;97914.35;624640;227;68580;-65
2022/01/16 06:05:44;;;;;;;;;;;;;;;26.55;61.12;97918.15;624665;227;65054;-65
2022/01/16 06:08:12;;;;;;;;;;;;;;;26.56;58.51;97916.25;624673;227;68790;-65
2022/01/16 06:10:40;;;;;;;;;;;;;;;26.55;61.44;97920.05;624634;227;66557;-65
2022/01/16 06:13:08;;;;;;;;;;;;;;;26.56;62.32;97918.95;624646;227;62966;-65
2022/01/16 06:15:36;;;;;;;;;;;;;;;26.57;59.60;97925.94;624672;227;66151;-65
2022/01/16 06:18:05;;;;;;;;;;;;;;;26.57;61.69;97928.63;624690;227;68675;-65
2022/01/16 06:20:32;;;;;;;;;;;;;;;26.57;60.27;97928.63;624669;227;62999;-65
2022/01/16 06:23:00;;;;;;;;;;;;;;;26.55;60.00;97944.30;624670;227;66919;-65
2022/01/16 06:25:28;;;;;;;;;;;;;;;26.58;60.25;97942.94;624636;227;68488;-65
2022/01/16 06:27:56;;;;;;;;;;;;;;;26.56;58.11;97932.42;624615;227;65077;-65
2022/01/16 06:30:23;;;;;;;;;;;;;;;26.55;59.90;97931.62;624633;227;68705;-65
2022/01/16 06:32:51;;;;;;;;;;;;;;;26.57;60.15;97934.02;624706;227;68604;-65
2022/01/16 06:35:19;;;;;;;;;;;;;;;26.58;59.89;97948.33;624635;227;62854;-65
2022/01/16 06:37:47;;;;;;;;;;;;;;;26.59;59.80;97952.62;624668;227;69002;-65
2022/01/16 06:40:15;;;;;;;;;;;;;;;26.61;60.27;97955.84;624465;227;68688;-65
2022/01/16 06:42:42;;;;;;;;;;;;;;;26.61;60.26;97953.95;624632;227;64844;-65
2022/01/16 06:45:11;;;;;;;;;;;;;;;26.60;60.25;97959.61;624705;227;66599;-65
2022/01/16 06:47:38;;;;;;;;;;;;;;;26.61;60.37;97972.81;624620;227;66417;-65
2022/01/16 06:50:08;;;;;;;;;;;;;;;26.62;59.73;97963.63;624594;227;62681;-65
2022/01/16 06:52:35;;;;;;;;;;;;;;;26.63;60.20;97967.13;624593;226;66624;-66
2022/01/16 06:55:04;;;;;;;;;;;;;;;26.64;60.23;97969.55;624534;227;68446;-65
2022/01/16 06:57:31;;;;;;;;;;;;;;;26.65;60.95;97962.25;624620;227;65063;-65
2022/01/16 06:59:58;;;;;;;;;;;;;;;26.66;60.87;97961.98;624657;227;68777;-65
2022/01/16 07:02:27;;;;;;;;;;;;;;;26.68;61.12;97965.20;624652;227;68204;-65
2022/01/16 07:04:55;;;;;;;;;;;;;;;26.68;60.89;97967.91;624553;227;64850;-66
2022/01/16 07:07:22;;;;;;;;;;;;;;;26.69;60.66;97972.20;624633;227;66358;-66
2022/01/16 07:09:50;;;;;;;;;;;;;;;26.69;60.81;97966.80;624682;227;66400;-65
2022/01/16 07:12:17;;;;;;;;;;;;;;;26.70;60.84;97971.09;624544;227;62925;-65
2022/01/16 07:14:45;;;;;;;;;;;;;;;26.70;60.64;97979.19;624651;227;68282;-66
2022/01/16 07:17:12;;;;;;;;;;;;;;;26.71;60.52;97978.11;624688;227;68302;-65
2022/01/16 07:19:39;;;;;;;;;;;;;;;26.73;60.72;97989.39;624658;227;64721;-65
2022/01/16 07:22:07;;;;;;;;;;;;;;;26.75;61.24;97991.82;624613;227;68302;-66
2022/01/16 07:24:35;;;;;;;;;;;;;;;26.73;61.74;97989.39;624665;227;68667;-66
2022/01/16 07:27:02;;;;;;;;;;;;;;;26.74;61.15;97991.02;624678;227;64872;-66
2022/01/16 07:29:30;;;;;;;;;;;;;;;26.75;60.78;97986.43;624555;227;68467;-66
2022/01/16 07:31:58;;;;;;;;;;;;;;;26.75;61.62;97981.83;624643;227;68679;-66
2022/01/16 07:34:25;;;;;;;;;;;;;;;26.76;60.79;97983.46;624589;227;65073;-66
2022/01/16 07:36:53;;;;;;;;;;;;;;;26.77;61.22;97979.66;624678;227;66607;-65
2022/01/16 07:39:20;;;;;;;;;;;;;;;26.77;61.66;97982.36;624620;227;66238;-65
2022/01/16 07:41:48;;;;;;;;;;;;;;;26.78;61.02;97981.26;624653;227;62928;-66
2022/01/16 07:44:16;;;;;;;;;;;;;;;26.80;61.69;97983.69;624599;227;69274;-65
2022/01/16 07:46:43;;;;;;;;;;;;;;;26.82;62.46;97978.81;623995;227;68509;-65
2022/01/16 07:49:11;;;;;;;;;;;;;;;26.81;62.23;97979.88;624634;227;65022;-65
2022/01/16 07:51:38;;;;;;;;;;;;;;;26.83;63.02;97979.61;625025;226;68984;-66
2022/01/16 07:54:06;;;;;;;;;;;;;;;26.85;62.28;97980.14;625755;226;68585;-66
2022/01/16 07:56:33;;;;;;;;;;;;;;;26.86;60.95;97976.34;625760;226;65030;-66
2022/01/16 07:59:01;;;;;;;;;;;;;;;26.86;61.98;97970.95;625727;226;68594;-65
2022/01/16 08:01:28;;;;;;;;;;;;;;;26.88;61.87;97972.27;625804;226;66751;-65
2022/01/16 08:03:56;;;;;;;;;;;;;;;26.91;61.79;97976.29;625685;226;63028;-62
2022/01/16 08:06:25;;;;;;;;;;;;;;;26.91;60.56;97985.18;625743;226;66715;-63
2022/01/16 08:08:53;;;;;;;;;;;;;;;26.92;62.25;97985.98;625787;226;68657;-63
2022/01/16 08:11:20;;;;;;;;;;;;;;;26.95;61.54;97977.31;625502;226;62950;-63
2022/01/16 08:13:48;;;;;;;;;;;;;;;26.96;62.30;97984.33;625809;226;66540;-63
2022/01/16 08:16:15;;;;;;;;;;;;;;;26.97;61.48;97967.84;625570;226;66336;-63
2022/01/16 08:18:43;;;;;;;;;;;;;;;27.00;62.90;97969.95;625260;226;62969;-63
2022/01/16 08:21:10;;;;;;;;;;;;;;;27.01;61.62;97952.70;625613;226;66404;-63
2022/01/16 08:23:38;;;;;;;;;;;;;;;27.01;61.21;97950.00;625753;226;66635;-63
2022/01/16 08:26:05;;;;;;;;;;;;;;;27.03;62.40;97952.40;625776;226;62937;-68
2022/01/16 08:28:33;;;;;;;;;;;;;;;27.04;61.80;97953.20;625769;226;66584;-68
2022/01/16 08:31:00;;;;;;;;;;;;;;;27.06;61.91;97942.92;625775;226;66571;-68
2022/01/16 08:33:28;;;;;;;;;;;;;;;27.09;61.94;97953.97;625756;226;62883;-68
2022/01/16 08:35:55;;;;;;;;;;;;;;;27.08;62.32;97938.85;625804;226;68730;-68
2022/01/16 08:38:23;;;;;;;;;;;;;;;27.11;62.06;97935.57;625786;226;68459;-69
2022/01/16 08:40:51;;;;;;;;;;;;;;;27.13;62.33;97929.91;625870;226;62679;-69
2022/01/16 08:43:18;;;;;;;;;;;;;;;27.14;61.09;97932.30;625762;226;68511;-69
2022/01/16 08:45:46;;;;;;;;;;;;;;;27.16;60.76;97932.02;625801;226;68599;-63
2022/01/16 08:48:14;;;;;;;;;;;;;;;27.18;60.43;97924.47;625789;226;65034;-63
2022/01/16 08:50:41;;;;;;;;;;;;;;;27.20;60.59;97920.39;625737;226;69025;-68
2022/01/16 08:53:09;;;;;;;;;;;;;;;27.21;60.96;97910.39;625844;226;68771;-69
2022/01/16 08:55:37;;;;;;;;;;;;;;;27.21;60.55;97921.98;625788;226;65010;-69
2022/01/16 08:58:04;;;;;;;;;;;;;;;27.24;59.47;97928.70;625780;226;68767;-69
2022/01/16 09:00:32;;;;;;;;;;;;;;;27.28;60.41;97931.61;625804;226;68490;-69
2022/01/16 09:03:00;;;;;;;;;;;;;;;27.27;61.66;97927.33;625811;226;62871;-69
2022/01/16 09:05:28;;;;;;;;;;;;;;;27.30;60.07;97924.84;625869;226;66593;-69
2022/01/16 09:07:56;;;;;;;;;;;;;;;27.30;60.27;97921.34;625794;226;66736;-69
2022/01/16 09:10:24;;;;;;;;;;;;;;;27.31;60.60;97923.77;625764;226;64902;-69
2022/01/16 09:12:53;;;;;;;;;;;;;;;27.32;58.66;97909.16;625757;226;68816;-69
2022/01/16 09:15:21;;;;;;;;;;;;;;;27.34;59.53;97901.59;625795;226;68726;-69
2022/01/16 09:17:48;;;;;;;;;;;;;;;27.35;60.07;97902.38;625796;226;64914;-69
2022/01/16 09:20:16;;;;;;;;;;;;;;;27.35;60.45;97897.78;625847;226;68611;-69
2022/01/16 09:22:45;;;;;;;;;;;;;;;27.37;58.83;97894.80;625764;226;68685;-71
2022/01/16 09:25:14;;;;;;;;;;;;;;;27.38;58.24;97886.40;625791;226;65040;-69
2022/01/16 09:27:41;;;;;;;;;;;;;;;27.40;58.99;97878.02;625804;226;68859;-63
2022/01/16 09:30:10;;;;;;;;;;;;;;;27.41;59.07;97876.92;625828;226;68443;-64
2022/01/16 09:32:38;;;;;;;;;;;;;;;27.43;59.76;97866.64;625828;226;65405;-63
2022/01/16 09:35:06;;;;;;;;;;;;;;;27.44;59.63;97862.83;625779;226;68786;-63
2022/01/16 09:37:35;;;;;;;;;;;;;;;27.44;60.93;97865.53;625719;226;69008;-63
2022/01/16 09:40:03;;;;;;;;;;;;;;;27.43;59.53;97861.23;621194;226;66538;-63
2022/01/16 09:42:31;;;;;;;;;;;;;;;27.44;59.57;97857.44;625801;226;68743;-63
2022/01/16 09:44:58;;;;;;;;;;;;;;;27.46;59.43;97866.05;625844;226;68557;-63
2022/01/16 09:47:26;;;;;;;;;;;;;;;27.47;59.41;97856.84;625773;226;63028;-64
2022/01/16 09:49:53;;;;;;;;;;;;;;;27.48;58.10;97857.67;625779;226;68921;-63
2022/01/16 09:52:21;;;;;;;;;;;;;;;27.49;59.26;97853.86;625731;226;68532;-63
2022/01/16 09:54:51;;;;;;;;;;;;;;;27.49;60.08;97843.86;625792;226;65024;-64
2022/01/16 09:57:18;;;;;;;;;;;;;;;27.49;58.77;97837.66;625835;226;68405;-64
2022/01/16 09:59:46;;;;;;;;;;;;;;;27.51;59.77;97838.98;625815;226;68714;-63
2022/01/16 10:02:13;;;;;;;;;;;;;;;27.51;58.30;97840.88;625771;226;64931;-63
2022/01/16 10:04:42;;;;;;;;;;;;;;;27.52;57.93;97834.38;625767;226;70254;-63
2022/01/16 10:07:11;;;;;;;;;;;;;;;27.51;57.50;97825.48;625780;226;66670;-63
2022/01/16 10:09:40;;;;;;;;;;;;;;;27.53;58.97;97828.70;625807;226;62976;-63
2022/01/16 10:12:16;;;;;;;;;;;;;;;27.53;57.67;97822.47;625791;226;66573;-63
2022/01/16 10:14:49;;;;;;;;;;;;;;;27.54;58.70;97826.80;625814;226;68536;-63
2022/01/16 10:17:20;;;;;;;;;;;;;;;27.53;59.73;97825.17;625786;226;65223;-63
2022/01/16 10:19:58;;;;;;;;;;;;;;;27.51;58.28;97811.19;625777;226;66691;-63
2022/01/16 10:22:27;;;;;;;;;;;;;;;27.53;58.77;97820.59;619672;226;68730;-63
2022/01/16 10:24:55;;;;;;;;;;;;;;;27.54;58.34;97818.69;625446;226;65027;-63
2022/01/16 10:27:22;;;;;;;;;;;;;;;27.53;57.73;97812.50;625797;226;66530;-63
2022/01/16 10:29:52;;;;;;;;;;;;;;;27.54;57.64;97811.39;625776;224;68346;-63
2022/01/16 10:32:24;;;;;;;;;;;;;;;27.56;57.80;97813.80;625567;226;62848;-63
2022/01/16 10:34:53;;;;;;;;;;;;;;;27.54;58.80;97814.09;625798;226;66742;-64
2022/01/16 10:37:29;;;;;;;;;;;;;;;27.54;59.74;97807.89;625783;226;68712;-64
2022/01/16 10:39:59;;;;;;;;;;;;;;;27.53;58.81;97804.39;625696;226;65008;-64
2022/01/16 10:42:27;;;;;;;;;;;;;;;27.53;59.84;97798.17;625855;226;66329;-64
2022/01/16 10:44:56;;;;;;;;;;;;;;;27.54;58.51;97792.49;625823;226;68396;-64
2022/01/16 10:47:28;;;;;;;;;;;;;;;27.55;58.57;97794.08;625782;226;62830;-64
2022/01/16 10:50:00;;;;;;;;;;;;;;;27.55;57.66;97794.08;625588;226;68766;-64
2022/01/16 10:52:27;;;;;;;;;;;;;;;27.53;57.83;97782.80;624505;226;68827;-64
2022/01/16 10:54:55;;;;;;;;;;;;;;;27.54;59.78;97784.39;624644;227;65003;-64
2022/01/16 10:57:26;;;;;;;;;;;;;;;27.52;58.76;97777.69;624638;227;66418;-64
2022/01/16 11:00:15;;;;;;;;;;;;;;;27.53;58.91;97780.09;624616;227;68536;-63
2022/01/16 11:02:43;;;;;;;;;;;;;;;27.51;58.66;97782.28;624633;227;64875;-63
2022/01/16 11:05:12;;;;;;;;;;;;;;;27.50;60.47;97775.30;624613;227;66521;-63
2022/01/16 11:07:42;;;;;;;;;;;;;;;27.50;59.53;97767.20;624654;225;68566;-63
2022/01/16 11:10:26;;;;;;;;;;;;;;;27.50;58.63;97775.30;624677;227;65049;-63
2022/01/16 11:12:49;;;;;;;;;;;;;;;27.49;58.96;97779.07;624452;226;68073;-63
2022/01/16 11:15:17;;;;;;;;;;;;;;;27.49;59.47;97768.27;624589;227;66398;-63
2022/01/16 11:17:45;;;;;;;;;;;;;;;27.49;59.72;97772.88;624611;227;64845;-63
2022/01/16 11:20:14;;;;;;;;;;;;;;;27.48;59.85;97772.08;624681;227;68839;-63
2022/01/16 11:23:01;;;;;;;;;;;;;;;27.46;59.40;97768.87;624727;227;68585;-63
2022/01/16 11:25:34;;;;;;;;;;;;;;;27.47;59.48;97767.76;624610;226;66251;-63
2022/01/16 11:28:02;;;;;;;;;;;;;;;27.44;60.64;97771.05;624229;226;66901;-63
2022/01/16 11:30:31;;;;;;;;;;;;;;;27.43;58.82;97772.16;624642;227;68360;-63
2022/01/16 11:32:59;;;;;;;;;;;;;;;27.43;60.94;97764.86;624576;227;65040;-63
2022/01/16 11:35:27;;;;;;;;;;;;;;;27.41;61.27;97766.25;624629;227;66325;-63
2022/01/16 11:37:57;;;;;;;;;;;;;;;27.42;61.23;97757.87;624671;227;68684;-63
2022/01/16 11:40:31;;;;;;;;;;;;;;;27.42;60.32;97757.08;624568;227;65106;-63
2022/01/16 11:43:11;;;;;;;;;;;;;;;27.40;60.86;97748.46;624190;226;68714;-63
2022/01/16 11:45:46;;;;;;;;;;;;;;;27.40;61.03;97741.16;624511;227;66737;-63
2022/01/16 11:48:13;;;;;;;;;;;;;;;27.39;60.25;97747.66;624548;227;63028;-63
2022/01/16 11:50:41;;;;;;;;;;;;;;;27.37;60.82;97746.36;624439;226;66579;-63
2022/01/16 11:53:08;;;;;;;;;;;;;;;27.37;60.98;97732.86;624593;227;68658;-63
2022/01/16 11:55:36;;;;;;;;;;;;;;;27.34;60.63;97726.16;624587;227;65144;-63
2022/01/16 11:58:04;;;;;;;;;;;;;;;27.35;60.48;97733.14;624624;227;68753;-64
2022/01/16 12:00:33;;;;;;;;;;;;;;;27.36;60.91;97725.84;624642;227;66165;-63
2022/01/16 12:03:01;;;;;;;;;;;;;;;27.36;61.26;97728.55;624128;227;62863;-63
2022/01/16 12:05:29;;;;;;;;;;;;;;;27.35;61.26;97729.65;624662;227;66342;-63
2022/01/16 12:07:58;;;;;;;;;;;;;;;27.33;60.73;97721.83;624585;227;67020;-63
2022/01/16 12:10:30;;;;;;;;;;;;;;;27.36;60.08;97720.44;624638;227;65595;-63
2022/01/16 12:12:58;;;;;;;;;;;;;;;27.36;60.98;97721.23;623037;226;66663;-64
2022/01/16 12:15:27;;;;;;;;;;;;;;;27.35;60.64;97722.34;624626;227;66549;-64
2022/01/16 12:17:54;;;;;;;;;;;;;;;27.34;61.42;97718.06;624681;227;65128;-64
2022/01/16 12:20:25;;;;;;;;;;;;;;;27.35;60.04;97722.34;624638;227;68797;-64
2022/01/16 12:22:55;;;;;;;;;;;;;;;27.36;61.60;97717.75;624682;227;68554;-64
2022/01/16 12:25:32;;;;;;;;;;;;;;;27.39;59.59;97717.15;624726;227;47064;-64
2022/01/16 12:28:03;;;;;;;;;;;;;;;27.38;61.03;97721.75;624344;226;66258;-64
2022/01/16 12:30:51;;;;;;;;;;;;;;;27.39;59.68;97715.28;624605;227;68897;-64
2022/01/16 12:33:25;;;;;;;;;;;;;;;27.38;60.48;97712.86;624646;227;65136;-63
2022/01/16 12:35:55;;;;;;;;;;;;;;;27.39;60.35;97712.58;624681;227;68882;-63
2022/01/16 12:38:24;;;;;;;;;;;;;;;27.39;61.23;97714.45;624669;227;68520;-63
2022/01/16 12:41:08;;;;;;;;;;;;;;;27.40;60.61;97703.38;624644;227;62954;-64
2022/01/16 12:43:43;;;;;;;;;;;;;;;27.40;60.64;97707.97;624646;227;68733;-63
2022/01/16 12:46:11;;;;;;;;;;;;;;;27.40;60.55;97708.77;624664;227;68485;-63
2022/01/16 12:48:42;;;;;;;;;;;;;;;27.40;60.86;97710.67;624678;227;65154;-63
2022/01/16 12:51:10;;;;;;;;;;;;;;;27.39;60.58;97712.58;624928;226;68777;-64
2022/01/16 12:53:40;;;;;;;;;;;;;;;27.40;60.43;97706.07;625794;226;68693;-64
2022/01/16 12:56:24;;;;;;;;;;;;;;;27.40;61.00;97703.38;625808;226;64986;-64
2022/01/16 12:58:54;;;;;;;;;;;;;;;27.42;58.97;97703.88;625794;226;66592;-63
2022/01/16 13:01:21;;;;;;;;;;;;;;;27.43;60.23;97694.67;625695;226;68506;-63
2022/01/16 13:03:49;;;;;;;;;;;;;;;27.42;59.69;97693.09;625656;226;64864;-62
2022/01/16 13:06:29;;;;;;;;;;;;;;;27.44;59.33;97692.77;625638;226;68912;-62
2022/01/16 13:08:59;;;;;;;;;;;;;;;27.44;60.24;97692.77;624817;226;66562;-63
2022/01/16 13:11:28;;;;;;;;;;;;;;;27.45;59.56;97697.89;625802;226;63012;-63
2022/01/16 13:13:58;;;;;;;;;;;;;;;27.47;59.50;97696.78;625733;226;68829;-63
2022/01/16 13:16:27;;;;;;;;;;;;;;;27.47;59.32;97700.27;625791;226;68476;-63
2022/01/16 13:18:58;;;;;;;;;;;;;;;27.49;58.96;97689.19;625841;226;65130;-69
2022/01/16 13:21:32;;;;;;;;;;;;;;;27.50;59.02;97699.70;625784;226;68840;-69
2022/01/16 13:23:54;;;;;;;;;;;;;;;27.51;60.60;97695.90;625504;226;66802;-70
2022/01/16 13:26:25;;;;;;;;;;;;;;;27.51;58.73;97695.90;625786;226;65144;-69
2022/01/16 13:29:00;;;;;;;;;;;;;;;27.53;58.26;97704.51;625779;226;68621;-69
2022/01/16 13:31:29;;;;;;;;;;;;;;;27.54;58.28;97703.40;625806;226;68801;-63
2022/01/16 13:34:10;;;;;;;;;;;;;;;27.56;59.10;97698.51;625827;226;65045;-63
2022/01/16 13:36:40;;;;;;;;;;;;;;;27.57;59.33;97707.41;625736;226;69033;-64
2022/01/16 13:39:08;;;;;;;;;;;;;;;27.58;58.39;97698.20;621199;226;70310;-63